createdAt,value
2023-03-29T00:00:14.562Z,0.30
2023-03-29T00:04:31.898Z,0.40
2023-03-29T00:08:54.135Z,0.30
2023-03-29T00:13:11.415Z,0.30
2023-03-29T00:17:29.007Z,0.40
2023-03-29T00:21:46.229Z,0.60
2023-03-29T00:26:05.933Z,0.80
2023-03-29T00:30:24.990Z,1.20
2023-03-29T00:34:46.173Z,1.40
2023-03-29T00:39:04.833Z,1.60
2023-03-29T00:43:22.361Z,1.70
2023-03-29T00:47:51.196Z,1.80
2023-03-29T00:52:08.866Z,1.80
2023-03-29T00:56:35.302Z,1.80
2023-03-29T01:01:02.637Z,1.80
2023-03-29T01:05:29.561Z,1.70
2023-03-29T01:09:53.495Z,1.60
2023-03-29T01:14:18.457Z,1.60
2023-03-29T01:18:35.818Z,1.60
2023-03-29T01:23:13.978Z,1.60
2023-03-29T01:27:37.331Z,1.50
2023-03-29T01:32:08.819Z,1.40
2023-03-29T01:36:31.304Z,1.40
2023-03-29T01:40:48.554Z,1.50
2023-03-29T01:45:31.492Z,1.50
2023-03-29T01:50:12.640Z,1.60
2023-03-29T01:54:37.489Z,1.50
2023-03-29T01:59:03.927Z,1.50
2023-03-29T02:03:24.747Z,1.60
2023-03-29T02:07:44.736Z,1.60
2023-03-29T02:12:04.223Z,1.70
2023-03-29T02:16:22.419Z,1.80
2023-03-29T02:20:47.485Z,1.90
2023-03-29T02:25:09.249Z,1.90
2023-03-29T02:29:27.478Z,1.90
2023-03-29T02:33:53.063Z,1.90
2023-03-29T02:38:11.459Z,1.90
2023-03-29T02:42:28.955Z,1.90
2023-03-29T02:46:54.396Z,2.00
2023-03-29T02:51:19.906Z,2.10
2023-03-29T02:55:39.082Z,2.20
2023-03-29T02:59:58.879Z,2.60
2023-03-29T03:04:20.785Z,3.00
2023-03-29T03:08:38.736Z,3.10
2023-03-29T03:12:56.032Z,3.20
2023-03-29T03:17:13.524Z,3.30
2023-03-29T03:21:31.057Z,3.40
2023-03-29T03:25:49.191Z,3.40
2023-03-29T03:30:07.175Z,3.50
2023-03-29T03:34:24.449Z,3.60
2023-03-29T03:38:42.295Z,3.70
2023-03-29T03:42:59.459Z,3.70
2023-03-29T03:47:16.778Z,3.60
2023-03-29T03:51:34.319Z,3.60
2023-03-29T03:55:53.354Z,3.60
2023-03-29T04:00:19.329Z,3.70
2023-03-29T04:04:37.120Z,3.70
2023-03-29T04:08:54.403Z,3.70
2023-03-29T04:13:11.971Z,3.70
2023-03-29T04:17:29.297Z,3.70
2023-03-29T04:21:49.261Z,3.60
2023-03-29T04:26:06.679Z,3.60
2023-03-29T04:30:23.900Z,3.60
2023-03-29T04:34:41.860Z,3.70
2023-03-29T04:39:01.625Z,3.80
2023-03-29T04:43:19.024Z,3.70
2023-03-29T04:47:36.601Z,3.70
2023-03-29T04:51:54.669Z,3.70
2023-03-29T04:56:12.102Z,3.70
2023-03-29T05:00:29.473Z,3.70
2023-03-29T05:04:46.928Z,3.60
2023-03-29T05:09:04.922Z,3.70
2023-03-29T05:13:22.212Z,3.70
2023-03-29T05:17:39.662Z,3.60
2023-03-29T05:21:57.644Z,3.60
2023-03-29T05:26:15.455Z,3.60
2023-03-29T05:30:33.287Z,3.60
2023-03-29T05:34:50.470Z,3.60
2023-03-29T05:39:07.697Z,3.60
2023-03-29T05:43:24.981Z,3.50
2023-03-29T05:47:42.365Z,3.50
2023-03-29T05:52:00.190Z,3.50
2023-03-29T05:56:18.689Z,3.50
2023-03-29T06:00:39.504Z,3.40
2023-03-29T06:04:57.411Z,3.50
2023-03-29T06:09:15.605Z,3.50
2023-03-29T06:13:37.223Z,3.50
2023-03-29T06:17:55.020Z,3.60
2023-03-29T06:22:14.337Z,3.60
2023-03-29T06:26:32.225Z,3.70
2023-03-29T06:30:49.967Z,3.70
2023-03-29T06:35:07.971Z,3.80
2023-03-29T06:39:27.760Z,3.90
2023-03-29T06:43:45.348Z,3.90
2023-03-29T06:48:03.501Z,4.00
2023-03-29T06:52:20.798Z,4.00
2023-03-29T06:56:38.290Z,4.10
2023-03-29T07:01:02.027Z,4.10
2023-03-29T07:05:20.462Z,4.20
2023-03-29T07:09:40.346Z,4.30
2023-03-29T07:13:58.041Z,4.30
2023-03-29T07:18:15.826Z,4.40
2023-03-29T07:22:33.000Z,4.50
2023-03-29T07:27:03.426Z,4.50
2023-03-29T07:31:21.811Z,4.60
2023-03-29T07:35:43.606Z,4.70
2023-03-29T07:40:03.510Z,4.90
2023-03-29T07:44:22.119Z,5.00
2023-03-29T07:48:39.737Z,5.10
2023-03-29T07:53:00.958Z,5.30
2023-03-29T07:57:18.284Z,5.50
2023-03-29T08:01:35.686Z,5.60
2023-03-29T08:05:52.842Z,5.80
2023-03-29T08:10:15.837Z,5.80
2023-03-29T08:14:33.346Z,5.80
2023-03-29T08:18:50.678Z,5.80
2023-03-29T08:23:08.375Z,5.80
2023-03-29T08:27:26.029Z,6.00
2023-03-29T08:31:43.611Z,6.10
2023-03-29T08:36:01.160Z,6.20
2023-03-29T08:40:23.356Z,6.40
2023-03-29T08:44:57.830Z,6.30
2023-03-29T08:49:16.612Z,6.60
2023-03-29T08:53:38.338Z,6.70
2023-03-29T08:57:57.355Z,6.70
2023-03-29T09:02:24.074Z,6.80
2023-03-29T09:06:41.829Z,7.00
2023-03-29T09:11:17.391Z,7.10
2023-03-29T09:16:00.655Z,7.40
2023-03-29T09:20:47.706Z,7.60
2023-03-29T09:25:52.533Z,7.60
2023-03-29T09:30:26.475Z,8.00
2023-03-29T09:34:54.701Z,8.50
2023-03-29T09:39:14.887Z,8.90
2023-03-29T09:43:37.858Z,8.70
2023-03-29T09:47:58.997Z,8.60
2023-03-29T09:52:18.208Z,8.70
2023-03-29T09:56:35.623Z,8.90
2023-03-29T10:00:53.703Z,9.00
2023-03-29T10:05:16.413Z,9.10
2023-03-29T10:09:34.290Z,9.10
2023-03-29T10:13:57.463Z,9.30
2023-03-29T10:18:15.042Z,9.40
2023-03-29T10:22:38.331Z,9.50
2023-03-29T10:27:02.254Z,9.60
2023-03-29T10:31:22.622Z,9.70
2023-03-29T10:35:42.067Z,10.00
2023-03-29T10:39:59.496Z,10.20
2023-03-29T10:44:33.665Z,10.30
2023-03-29T10:48:56.058Z,10.40
2023-03-29T10:53:21.701Z,10.70
2023-03-29T10:58:06.987Z,10.90
2023-03-29T11:02:57.572Z,11.20
2023-03-29T11:07:35.310Z,10.90
2023-03-29T11:12:18.760Z,11.30
2023-03-29T11:16:58.556Z,10.90
2023-03-29T11:21:22.916Z,11.20
2023-03-29T11:26:08.366Z,11.20
2023-03-29T11:30:32.369Z,11.50
2023-03-29T11:35:02.433Z,11.30
2023-03-29T11:39:53.855Z,11.50
2023-03-29T11:44:21.374Z,11.50
2023-03-29T11:48:44.047Z,11.10
2023-03-29T11:53:11.647Z,11.30
2023-03-29T11:57:40.005Z,11.70
2023-03-29T12:02:08.296Z,11.70
2023-03-29T12:06:42.372Z,12.00
2023-03-29T12:11:09.854Z,12.70
2023-03-29T12:15:32.631Z,12.10
2023-03-29T12:20:23.684Z,12.00
2023-03-29T12:24:43.857Z,12.40
2023-03-29T12:29:37.963Z,12.10
2023-03-29T12:34:09.031Z,12.10
2023-03-29T12:38:30.852Z,12.00
2023-03-29T12:42:53.163Z,11.50
2023-03-29T12:47:21.457Z,11.60
2023-03-29T12:51:42.432Z,12.00
2023-03-29T12:56:21.750Z,12.40
2023-03-29T13:00:44.835Z,12.70
2023-03-29T13:05:04.887Z,12.50
2023-03-29T13:09:37.750Z,12.40
2023-03-29T13:13:55.935Z,12.30
2023-03-29T13:18:47.793Z,12.40
2023-03-29T13:23:17.737Z,12.60
2023-03-29T13:27:57.672Z,12.70
2023-03-29T13:32:18.023Z,13.40
2023-03-29T13:36:44.340Z,13.40
2023-03-29T13:41:01.758Z,12.80
2023-03-29T13:45:33.176Z,12.90
2023-03-29T13:49:54.573Z,12.90
2023-03-29T13:54:24.672Z,13.10
2023-03-29T13:58:46.500Z,13.30
2023-03-29T14:03:12.463Z,13.60
2023-03-29T14:07:33.146Z,14.00
2023-03-29T14:11:52.102Z,13.90
2023-03-29T14:16:12.340Z,13.70
2023-03-29T14:20:32.683Z,13.40
2023-03-29T14:24:57.134Z,14.10
2023-03-29T14:29:14.926Z,14.10
2023-03-29T14:33:34.767Z,13.90
2023-03-29T14:37:52.510Z,13.60
2023-03-29T14:42:16.453Z,13.50
2023-03-29T14:46:34.949Z,13.30
2023-03-29T14:50:53.303Z,12.90
2023-03-29T14:55:11.825Z,13.00
2023-03-29T14:59:37.217Z,13.20
2023-03-29T15:04:08.017Z,13.50
2023-03-29T15:08:31.703Z,13.50
2023-03-29T15:12:50.414Z,13.80
2023-03-29T15:17:49.608Z,13.80
2023-03-29T15:22:11.334Z,13.80
2023-03-29T15:26:32.716Z,13.40
2023-03-29T15:31:04.763Z,13.30
2023-03-29T15:35:25.608Z,13.10
2023-03-29T15:39:44.331Z,12.90
2023-03-29T15:44:01.538Z,13.00
2023-03-29T15:48:23.961Z,13.10
2023-03-29T15:52:41.886Z,13.30
2023-03-29T15:57:06.669Z,13.40
2023-03-29T16:01:37.479Z,13.30
2023-03-29T16:05:56.863Z,13.20
2023-03-29T16:10:14.188Z,13.10
2023-03-29T16:14:31.907Z,12.80
2023-03-29T16:18:49.542Z,12.70
2023-03-29T16:23:09.878Z,12.50
2023-03-29T16:27:27.221Z,12.40
2023-03-29T16:31:46.702Z,12.40
2023-03-29T16:36:05.069Z,12.10
2023-03-29T16:40:23.956Z,11.90
2023-03-29T16:44:41.197Z,11.70
2023-03-29T16:48:58.416Z,11.70
2023-03-29T16:53:21.703Z,11.50
2023-03-29T16:57:40.360Z,11.40
2023-03-29T17:01:57.623Z,11.30
2023-03-29T17:06:14.935Z,11.30
2023-03-29T17:10:32.269Z,11.20
2023-03-29T17:14:51.371Z,11.00
2023-03-29T17:19:08.974Z,10.90
2023-03-29T17:23:26.510Z,10.80
2023-03-29T17:27:43.744Z,10.70
2023-03-29T17:32:01.002Z,10.60
2023-03-29T17:36:19.184Z,10.60
2023-03-29T17:40:36.520Z,10.50
2023-03-29T17:44:53.954Z,10.30
2023-03-29T17:49:12.217Z,10.10
2023-03-29T17:53:29.881Z,10.00
2023-03-29T17:57:51.595Z,9.80
2023-03-29T18:02:19.082Z,9.60
2023-03-29T18:06:36.591Z,9.60
2023-03-29T18:10:53.920Z,9.60
2023-03-29T18:15:11.897Z,9.60
2023-03-29T18:19:29.253Z,9.50
2023-03-29T18:23:48.620Z,9.40
2023-03-29T18:28:06.083Z,9.30
2023-03-29T18:32:23.517Z,9.40
2023-03-29T18:36:41.043Z,9.50
2023-03-29T18:40:58.454Z,9.60
2023-03-29T18:45:15.998Z,9.60
2023-03-29T18:49:37.606Z,9.60
2023-03-29T18:53:55.918Z,9.50
2023-03-29T18:58:15.004Z,9.40
2023-03-29T19:02:32.310Z,9.40
2023-03-29T19:06:49.777Z,9.40
2023-03-29T19:11:09.680Z,9.40
2023-03-29T19:15:27.247Z,9.50
2023-03-29T19:19:45.061Z,9.40
2023-03-29T19:24:05.111Z,9.40
2023-03-29T19:28:24.732Z,9.50
2023-03-29T19:32:42.052Z,9.40
2023-03-29T19:37:00.886Z,9.40
2023-03-29T19:41:18.506Z,9.50
2023-03-29T19:45:36.437Z,9.40
2023-03-29T19:49:54.035Z,9.40
2023-03-29T19:54:14.456Z,9.30
2023-03-29T19:58:31.793Z,9.40
2023-03-29T20:02:49.775Z,9.40
2023-03-29T20:07:09.401Z,9.30
2023-03-29T20:11:27.048Z,9.30
2023-03-29T20:15:46.715Z,9.30
2023-03-29T20:20:08.398Z,9.30
2023-03-29T20:24:26.189Z,9.30
2023-03-29T20:28:43.774Z,9.20
2023-03-29T20:33:01.027Z,9.20
2023-03-29T20:37:18.336Z,9.20
2023-03-29T20:41:38.424Z,9.20
2023-03-29T20:45:55.769Z,9.10
2023-03-29T20:50:13.054Z,9.20
2023-03-29T20:54:33.242Z,9.20
2023-03-29T20:58:50.394Z,9.10
2023-03-29T21:03:08.556Z,9.20
2023-03-29T21:07:26.591Z,9.30
2023-03-29T21:11:43.846Z,9.40
2023-03-29T21:16:01.162Z,9.40
2023-03-29T21:20:18.521Z,9.40
2023-03-29T21:24:36.603Z,9.60
2023-03-29T21:28:53.938Z,9.50
2023-03-29T21:33:11.415Z,9.60
2023-03-29T21:37:28.628Z,9.60
2023-03-29T21:41:46.247Z,9.60
2023-03-29T21:46:03.647Z,9.60
2023-03-29T21:50:20.941Z,9.60
2023-03-29T21:54:38.470Z,9.50
2023-03-29T21:58:55.729Z,9.60
2023-03-29T22:03:13.648Z,9.50
2023-03-29T22:07:30.943Z,9.40
2023-03-29T22:11:48.613Z,9.30
2023-03-29T22:16:07.455Z,9.30
2023-03-29T22:20:24.601Z,9.20
2023-03-29T22:24:42.342Z,9.30
2023-03-29T22:29:00.417Z,9.40
2023-03-29T22:33:17.865Z,9.30
2023-03-29T22:37:41.161Z,9.20
2023-03-29T22:41:58.383Z,9.30
2023-03-29T22:46:15.970Z,9.30
2023-03-29T22:50:33.186Z,9.40
2023-03-29T22:54:50.512Z,9.40
2023-03-29T22:59:07.827Z,9.40
2023-03-29T23:03:25.256Z,9.30
2023-03-29T23:07:42.423Z,9.30
2023-03-29T23:12:01.158Z,9.30
2023-03-29T23:16:21.067Z,9.30
2023-03-29T23:20:38.808Z,9.30
2023-03-29T23:24:56.054Z,9.40
2023-03-29T23:29:14.297Z,9.50
2023-03-29T23:33:35.296Z,9.50
2023-03-29T23:37:54.223Z,9.60
2023-03-29T23:42:11.674Z,9.70
2023-03-29T23:46:28.954Z,9.70
2023-03-29T23:50:46.285Z,9.70
2023-03-29T23:55:04.715Z,9.70
2023-03-29T23:59:26.974Z,9.60
